createdAt,value
2018-10-05T17:23:44.824Z,66.00
2018-10-05T17:26:23.063Z,66.60
2018-10-05T17:28:52.164Z,67.00
2018-10-05T17:31:20.781Z,67.70
2018-10-05T17:33:50.050Z,68.10
2018-10-05T17:36:18.648Z,68.20
2018-10-05T17:38:53.169Z,68.50
2018-10-05T17:41:22.146Z,68.90
2018-10-05T17:44:06.895Z,70.90
2018-10-05T17:46:35.525Z,69.80
2018-10-05T17:49:18.018Z,69.60
2018-10-05T17:51:46.805Z,69.80
2018-10-05T17:54:17.427Z,70.10
2018-10-05T17:56:45.981Z,70.30
2018-10-05T18:01:48.487Z,71.40
2018-10-05T18:04:20.107Z,70.90
2018-10-05T18:06:50.166Z,71.10
2018-10-05T18:09:19.758Z,71.90
2018-10-05T18:11:48.891Z,71.50
2018-10-05T18:14:17.885Z,71.70
2018-10-05T18:16:48.027Z,71.90
2018-10-05T18:19:17.610Z,72.30
2018-10-05T18:22:08.523Z,72.50
2018-10-05T18:24:39.822Z,72.70
2018-10-05T18:27:12.442Z,77.40
2018-10-05T18:29:41.540Z,77.20
2018-10-05T18:32:10.517Z,77.50
2018-10-05T18:34:41.415Z,76.00
2018-10-05T18:37:10.748Z,75.70
2018-10-05T18:39:39.602Z,76.20
2018-10-05T18:42:09.742Z,76.10
2018-10-05T18:44:38.707Z,75.90
2018-10-05T18:47:07.419Z,76.40
2018-10-05T18:49:36.236Z,76.20
2018-10-05T18:52:05.130Z,76.90
2018-10-05T18:54:34.468Z,77.50
2018-10-05T18:57:18.668Z,77.70
2018-10-05T18:59:48.493Z,78.10
2018-10-05T19:02:17.736Z,77.90
2018-10-05T19:04:47.341Z,77.50
2018-10-05T19:10:13.038Z,78.20
2018-10-05T19:15:22.487Z,77.50
2018-10-05T19:17:52.763Z,77.50
2018-10-05T19:20:23.531Z,78.10
2018-10-05T19:22:58.533Z,78.80
2018-10-05T19:25:28.912Z,79.20
2018-10-05T19:33:40.613Z,80.70
2018-10-05T19:36:10.638Z,81.00
2018-10-05T19:38:58.864Z,81.40
2018-10-05T19:41:30.072Z,81.70
2018-10-05T19:44:12.742Z,82.20
2018-10-05T19:46:56.616Z,82.40
2018-10-05T19:55:09.963Z,83.70
2018-10-05T20:06:04.317Z,86.60
2018-10-05T20:17:01.275Z,88.10
2018-10-05T20:25:22.837Z,89.00
2018-10-05T20:27:53.365Z,89.30
2018-10-05T20:33:13.813Z,90.00
2018-10-05T20:44:07.538Z,90.50
2018-10-05T20:46:43.359Z,90.70
2018-10-05T20:49:14.339Z,90.90
2018-10-05T20:51:52.833Z,91.00
2018-10-05T20:54:23.559Z,91.20
2018-10-05T20:57:01.266Z,91.40
2018-10-05T20:59:32.375Z,91.50
2018-10-05T21:02:01.719Z,91.70
2018-10-05T21:04:31.740Z,91.90
2018-10-05T21:07:01.916Z,92.00
2018-10-05T21:09:33.521Z,92.10
2018-10-05T21:14:38.906Z,92.50
2018-10-05T21:17:07.497Z,92.50
2018-10-05T21:19:36.091Z,92.70
2018-10-05T21:22:05.619Z,92.80
2018-10-05T21:24:34.164Z,92.90
2018-10-05T21:27:03.654Z,93.00
2018-10-05T21:29:32.461Z,93.10
2018-10-05T21:32:02.190Z,93.10
2018-10-05T21:34:31.040Z,93.10
2018-10-05T21:37:05.822Z,93.50
2018-10-05T21:39:36.108Z,93.50
2018-10-05T21:42:06.417Z,93.70
2018-10-05T21:44:34.981Z,93.80
2018-10-05T21:47:04.785Z,93.80
2018-10-05T21:49:33.301Z,93.80
2018-10-05T21:52:02.285Z,93.90
2018-10-05T21:54:30.813Z,94.10
2018-10-05T21:57:00.094Z,94.30
2018-10-05T21:59:28.676Z,94.40
2018-10-05T22:01:57.231Z,94.60
2018-10-05T22:04:26.283Z,94.70
2018-10-05T22:06:55.138Z,94.90
2018-10-05T22:09:24.257Z,95.00
2018-10-05T22:11:52.873Z,95.00
2018-10-05T22:14:22.809Z,95.10
2018-10-05T22:16:51.345Z,95.10
2018-10-05T22:19:19.987Z,95.20
2018-10-05T22:21:48.998Z,95.30
2018-10-05T22:24:17.576Z,95.20
2018-10-05T22:26:46.213Z,95.10
2018-10-05T22:29:15.165Z,95.20
2018-10-05T22:31:44.335Z,95.30
2018-10-05T22:34:13.546Z,95.40
2018-10-05T22:36:42.507Z,95.40
2018-10-05T22:39:11.310Z,95.50
2018-10-05T22:41:39.831Z,95.50
2018-10-05T22:44:08.783Z,95.60
2018-10-05T22:46:37.738Z,95.70
2018-10-05T22:49:06.632Z,95.60
2018-10-05T22:51:35.532Z,95.40
2018-10-05T22:54:04.471Z,95.70
2018-10-05T22:56:33.700Z,95.80
2018-10-05T22:59:02.546Z,95.70
2018-10-05T23:01:31.073Z,95.80
2018-10-05T23:03:59.590Z,95.70
2018-10-05T23:06:28.135Z,95.80
2018-10-05T23:08:57.028Z,95.90
2018-10-05T23:11:26.149Z,95.90
2018-10-05T23:13:55.553Z,95.90
2018-10-05T23:16:24.485Z,95.80
2018-10-05T23:18:53.018Z,95.90
2018-10-05T23:21:22.470Z,95.90
2018-10-05T23:23:51.086Z,95.80
2018-10-05T23:26:19.636Z,95.70
2018-10-05T23:28:48.476Z,95.60
2018-10-05T23:31:17.032Z,95.70
2018-10-05T23:33:45.561Z,95.70
2018-10-05T23:36:14.465Z,95.70
2018-10-05T23:38:43.605Z,95.70
2018-10-05T23:41:12.184Z,95.70
2018-10-05T23:43:40.707Z,95.60
2018-10-05T23:46:10.195Z,95.60
2018-10-05T23:48:38.752Z,95.50
2018-10-05T23:51:07.441Z,95.50
2018-10-05T23:53:36.396Z,95.50
2018-10-05T23:56:09.439Z,95.60
2018-10-05T23:58:38.001Z,95.60
